Time;durP1;ratioP1;P1;durP2;ratioP2;P2;SDS_P1;SDS_P2;PMS_P1;PMS_P2;Temp;Humidity;BMP_temperature;BMP_pressure;BME280_temperature;BME280_humidity;BME280_pressure;Samples;Min_cycle;Max_cycle;Signal;HPM_P1;HPM_P2
2023/01/06 00:01:54;;;;;;;6.43;2.05;;;;;;;;;;6097411;23;20009;-86
2023/01/06 00:04:19;;;;;;;5.00;2.10;;;;;;;;;;6147736;23;20024;-86
2023/01/06 00:06:44;;;;;;;5.65;2.22;;;;;;;;;;6145955;23;20049;-86
2023/01/06 00:09:12;;;;;;;6.63;1.75;;;;;;;;;;6097443;23;20017;-86
2023/01/06 00:11:38;;;;;;;7.32;2.17;;;;;;;;;;6146538;23;20075;-84
2023/01/06 00:14:04;;;;;;;5.30;2.10;;;;;;;;;;6098339;23;20727;-85
2023/01/06 00:16:29;;;;;;;5.97;2.42;;;;;;;;;;6146233;23;20024;-85
2023/01/06 00:18:56;;;;;;;4.45;2.17;;;;;;;;;;6147061;23;20088;-86
2023/01/06 00:21:21;;;;;;;5.32;1.90;;;;;;;;;;6147693;23;20037;-86
2023/01/06 00:23:47;;;;;;;6.22;2.40;;;;;;;;;;6104321;23;20072;-86
2023/01/06 00:26:15;;;;;;;5.20;2.20;;;;;;;;;;6097779;23;20033;-87
2023/01/06 00:28:40;;;;;;;4.70;1.95;;;;;;;;;;6098324;23;20018;-84
2023/01/06 00:31:11;;;;;;;4.05;1.88;;;;;;;;;;6097389;23;20457;-85
2023/01/06 00:33:37;;;;;;;5.13;1.73;;;;;;;;;;6122831;23;20068;-85
2023/01/06 00:36:02;;;;;;;5.80;1.90;;;;;;;;;;6097247;23;20026;-84
2023/01/06 00:38:28;;;;;;;4.28;1.70;;;;;;;;;;6097326;23;20703;-83
2023/01/06 00:40:53;;;;;;;3.83;1.30;;;;;;;;;;6121270;23;20599;-85
2023/01/06 00:43:19;;;;;;;3.97;1.55;;;;;;;;;;6099003;23;20017;-85
2023/01/06 00:45:44;;;;;;;4.50;1.80;;;;;;;;;;6096635;23;20024;-85
2023/01/06 00:48:09;;;;;;;3.15;1.48;;;;;;;;;;6097128;23;20044;-85
2023/01/06 00:50:35;;;;;;;4.47;1.33;;;;;;;;;;6097513;23;20033;-85
2023/01/06 00:53:00;;;;;;;3.38;1.23;;;;;;;;;;6099647;23;20006;-85
2023/01/06 00:55:26;;;;;;;5.05;1.20;;;;;;;;;;6126494;23;20345;-85
2023/01/06 00:57:52;;;;;;;4.13;1.23;;;;;;;;;;6152674;23;20399;-84
2023/01/06 01:00:18;;;;;;;2.80;1.08;;;;;;;;;;6099031;23;20032;-85
2023/01/06 01:02:43;;;;;;;3.92;1.00;;;;;;;;;;6129110;23;20013;-85
2023/01/06 01:05:09;;;;;;;3.63;1.15;;;;;;;;;;6146001;23;20454;-85
2023/01/06 01:07:34;;;;;;;4.80;1.15;;;;;;;;;;6146250;23;20364;-86
2023/01/06 01:09:59;;;;;;;4.03;1.20;;;;;;;;;;6146325;23;20013;-85
2023/01/06 01:12:25;;;;;;;1.95;0.90;;;;;;;;;;6097020;23;20446;-85
2023/01/06 01:14:52;;;;;;;3.10;0.98;;;;;;;;;;6122846;23;20022;-85
2023/01/06 01:17:19;;;;;;;;;;;;;;;;;;6102730;23;20323;-85
2023/01/06 01:19:47;;;;;;;5.27;1.30;;;;;;;;;;6122507;23;19963;-86
2023/01/06 01:22:12;;;;;;;;;;;;;;;;;;6121940;23;20018;-85
2023/01/06 01:24:38;;;;;;;2.90;1.00;;;;;;;;;;6097634;23;20329;-85
2023/01/06 01:27:03;;;;;;;6.55;1.30;;;;;;;;;;6096752;23;20028;-85
2023/01/06 01:29:29;;;;;;;2.67;0.98;;;;;;;;;;6097345;23;20137;-85
2023/01/06 01:31:54;;;;;;;2.72;0.90;;;;;;;;;;6125933;23;20044;-86
2023/01/06 01:34:21;;;;;;;5.10;1.20;;;;;;;;;;6104030;23;20021;-86
2023/01/06 01:36:47;;;;;;;3.10;0.77;;;;;;;;;;6097113;23;20094;-85
2023/01/06 01:39:13;;;;;;;2.17;1.00;;;;;;;;;;6097457;23;20022;-85
2023/01/06 01:41:39;;;;;;;3.70;1.20;;;;;;;;;;6096981;23;20112;-86
2023/01/06 01:44:42;;;;;;;3.50;1.23;;;;;;;;;;6147109;23;20071;-86
2023/01/06 01:47:08;;;;;;;2.80;0.95;;;;;;;;;;6121031;23;20019;-85
2023/01/06 01:49:39;;;;;;;2.53;0.90;;;;;;;;;;6097568;23;20466;-85
2023/01/06 01:52:05;;;;;;;3.50;1.10;;;;;;;;;;6082873;23;20018;-86
2023/01/06 01:54:33;;;;;;;4.07;0.98;;;;;;;;;;6097272;23;20017;-85
2023/01/06 01:57:00;;;;;;;;;;;;;;;;;;6096475;23;20089;-86
2023/01/06 01:59:27;;;;;;;;;;;;;;;;;;6120807;23;20504;-85
2023/01/06 02:01:53;;;;;;;3.22;1.20;;;;;;;;;;6097067;23;19999;-85
2023/01/06 02:06:55;;;;;;;4.53;1.20;;;;;;;;;;6042315;23;20468;-79
2023/01/06 02:09:27;;;;;;;4.43;1.20;;;;;;;;;;6059948;23;20022;-79
2023/01/06 02:11:55;;;;;;;5.10;1.10;;;;;;;;;;6078813;23;20503;-78
2023/01/06 02:14:22;;;;;;;3.92;1.10;;;;;;;;;;6087017;23;20022;-77
2023/01/06 02:17:13;;;;;;;2.15;0.90;;;;;;;;;;6085690;23;20018;-77
2023/01/06 02:20:12;;;;;;;3.28;1.00;;;;;;;;;;6088055;23;20399;-80
2023/01/06 02:22:59;;;;;;;4.85;1.23;;;;;;;;;;6057740;23;20022;-77
2023/01/06 02:25:42;;;;;;;3.88;1.30;;;;;;;;;;6081711;23;20022;-77
2023/01/06 02:28:20;;;;;;;3.83;1.25;;;;;;;;;;6086992;23;20330;-77
2023/01/06 02:31:04;;;;;;;2.60;0.90;;;;;;;;;;6087495;23;20014;-77
2023/01/06 02:33:32;;;;;;;2.45;1.05;;;;;;;;;;6078119;23;20499;-77
2023/01/06 02:36:07;;;;;;;4.25;1.10;;;;;;;;;;6084964;23;20101;-79
2023/01/06 02:38:41;;;;;;;2.35;1.10;;;;;;;;;;6063116;23;20034;-80
2023/01/06 02:41:27;;;;;;;3.38;0.70;;;;;;;;;;6085557;23;20018;-79
2023/01/06 02:44:05;;;;;;;3.58;1.05;;;;;;;;;;6086426;23;20018;-80
2023/01/06 02:46:57;;;;;;;4.85;0.95;;;;;;;;;;6087201;23;20073;-78
2023/01/06 02:49:34;;;;;;;2.90;1.00;;;;;;;;;;6062220;23;20052;-78
2023/01/06 02:52:06;;;;;;;3.85;1.10;;;;;;;;;;6087436;23;20354;-77
2023/01/06 02:54:41;;;;;;;5.03;1.20;;;;;;;;;;6088162;23;20018;-79
2023/01/06 02:57:26;;;;;;;2.72;0.82;;;;;;;;;;6086113;23;20093;-80
2023/01/06 03:00:15;;;;;;;3.28;0.98;;;;;;;;;;6088740;23;20331;-78
2023/01/06 03:02:43;;;;;;;5.80;1.30;;;;;;;;;;6046428;23;20090;-78
2023/01/06 03:05:12;;;;;;;2.53;1.00;;;;;;;;;;6059715;23;20082;-78
2023/01/06 03:07:38;;;;;;;2.13;0.77;;;;;;;;;;6091548;23;20016;-78
2023/01/06 03:10:04;;;;;;;2.15;0.88;;;;;;;;;;6093106;23;20085;-77
2023/01/06 03:12:37;;;;;;;2.05;0.90;;;;;;;;;;6092235;23;20023;-77
2023/01/06 03:15:04;;;;;;;6.32;0.93;;;;;;;;;;6093631;23;20066;-77
2023/01/06 03:17:29;;;;;;;2.97;0.95;;;;;;;;;;6068493;23;20350;-77
2023/01/06 03:19:55;;;;;;;3.58;0.63;;;;;;;;;;6093329;23;20021;-78
2023/01/06 03:22:22;;;;;;;3.10;0.77;;;;;;;;;;6092858;23;20018;-78
2023/01/06 03:24:47;;;;;;;5.55;1.00;;;;;;;;;;6118315;23;20010;-81
2023/01/06 03:27:14;;;;;;;3.88;0.70;;;;;;;;;;6067988;23;20025;-78
2023/01/06 03:29:39;;;;;;;2.38;0.70;;;;;;;;;;6093475;23;20361;-79
2023/01/06 03:32:18;;;;;;;2.40;0.70;;;;;;;;;;6117728;23;20018;-78
2023/01/06 03:35:09;;;;;;;3.00;1.05;;;;;;;;;;6040988;23;20046;-80
2023/01/06 03:37:51;;;;;;;2.30;0.90;;;;;;;;;;6085038;23;20022;-79
2023/01/06 03:40:32;;;;;;;2.88;0.88;;;;;;;;;;6089506;23;20026;-78
2023/01/06 03:43:12;;;;;;;2.47;0.77;;;;;;;;;;6117618;23;20017;-79
2023/01/06 03:45:49;;;;;;;4.18;0.90;;;;;;;;;;6091826;23;20024;-79
2023/01/06 03:48:23;;;;;;;3.70;0.90;;;;;;;;;;6067622;23;20106;-79
2023/01/06 03:50:52;;;;;;;4.13;1.00;;;;;;;;;;6098787;23;20238;-80
2023/01/06 03:53:33;;;;;;;5.43;1.23;;;;;;;;;;6092049;23;20014;-79
2023/01/06 03:56:36;;;;;;;4.50;0.73;;;;;;;;;;6091557;23;20033;-80
2023/01/06 03:59:04;;;;;;;2.97;0.98;;;;;;;;;;6089004;23;20484;-78
2023/01/06 04:01:30;;;;;;;4.43;1.10;;;;;;;;;;6062716;23;20373;-79
2023/01/06 04:03:55;;;;;;;3.42;1.02;;;;;;;;;;6039001;23;20019;-80
2023/01/06 04:06:21;;;;;;;13.60;2.75;;;;;;;;;;6075832;23;20048;-78
2023/01/06 04:08:47;;;;;;;2.70;0.90;;;;;;;;;;6068133;23;20013;-78
2023/01/06 04:12:37;;;;;;;4.47;0.82;;;;;;;;;;6067267;23;20018;-78
2023/01/06 04:13:58;;;;;;;5.10;0.82;;;;;;;;;;6067459;23;20347;-78
2023/01/06 04:16:23;;;;;;;2.88;1.05;;;;;;;;;;6088080;23;20022;-79
2023/01/06 04:18:49;;;;;;;3.75;1.00;;;;;;;;;;6065215;23;20354;-78
2023/01/06 04:21:14;;;;;;;1.90;0.60;;;;;;;;;;6038811;23;20018;-79
2023/01/06 04:23:40;;;;;;;2.25;0.80;;;;;;;;;;6040362;23;20345;-78
2023/01/06 04:26:05;;;;;;;3.45;0.90;;;;;;;;;;6071790;23;20349;-82
2023/01/06 04:28:31;;;;;;;2.85;1.05;;;;;;;;;;6092756;23;20097;-79
2023/01/06 04:30:57;;;;;;;3.80;1.13;;;;;;;;;;6090031;23;20254;-79
2023/01/06 04:33:22;;;;;;;3.08;0.85;;;;;;;;;;6068604;23;20018;-80
2023/01/06 04:35:48;;;;;;;3.15;1.00;;;;;;;;;;6091906;23;20080;-79
2023/01/06 04:38:13;;;;;;;3.17;0.82;;;;;;;;;;6092565;23;20401;-79
2023/01/06 04:40:40;;;;;;;4.38;0.73;;;;;;;;;;6090693;23;20033;-79
2023/01/06 04:43:06;;;;;;;3.95;0.93;;;;;;;;;;6068341;23;20018;-80
2023/01/06 04:45:33;;;;;;;3.72;0.95;;;;;;;;;;6077431;23;20021;-80
2023/01/06 04:47:58;;;;;;;2.97;0.98;;;;;;;;;;6092910;23;20089;-79
2023/01/06 04:50:30;;;;;;;2.97;1.00;;;;;;;;;;6078266;23;20536;-79
2023/01/06 04:52:55;;;;;;;3.17;0.88;;;;;;;;;;6092017;23;20041;-80
2023/01/06 04:55:21;;;;;;;3.53;1.17;;;;;;;;;;6117583;23;20026;-79
2023/01/06 04:57:46;;;;;;;4.35;1.17;;;;;;;;;;6117579;23;20014;-78
2023/01/06 05:00:12;;;;;;;3.95;1.00;;;;;;;;;;6090024;23;20032;-80
2023/01/06 05:02:37;;;;;;;3.20;0.90;;;;;;;;;;6067432;23;20017;-80
2023/01/06 05:05:03;;;;;;;3.42;1.23;;;;;;;;;;6092196;23;20064;-79
2023/01/06 05:07:28;;;;;;;4.63;1.13;;;;;;;;;;6054391;23;20033;-79
2023/01/06 05:09:54;;;;;;;4.10;1.10;;;;;;;;;;6068395;23;20085;-78
2023/01/06 05:12:19;;;;;;;5.30;1.23;;;;;;;;;;6091570;23;20029;-77
2023/01/06 05:14:44;;;;;;;3.78;1.40;;;;;;;;;;6092129;23;20053;-79
2023/01/06 05:17:10;;;;;;;3.60;1.23;;;;;;;;;;6091111;23;20029;-78
2023/01/06 05:19:35;;;;;;;4.47;1.30;;;;;;;;;;6067686;23;20402;-78
2023/01/06 05:22:10;;;;;;;3.95;0.90;;;;;;;;;;6067196;23;20036;-77
2023/01/06 05:24:36;;;;;;;3.28;0.88;;;;;;;;;;6067864;23;20438;-78
2023/01/06 05:27:02;;;;;;;5.03;1.30;;;;;;;;;;6067285;23;20017;-78
2023/01/06 05:29:27;;;;;;;3.10;1.20;;;;;;;;;;6091655;23;20385;-78
2023/01/06 05:31:53;;;;;;;4.95;1.40;;;;;;;;;;6066722;23;20520;-79
2023/01/06 05:34:18;;;;;;;4.00;1.35;;;;;;;;;;6079798;23;20025;-79
2023/01/06 05:36:44;;;;;;;4.03;1.20;;;;;;;;;;6090042;23;20385;-80
2023/01/06 05:39:09;;;;;;;4.97;1.33;;;;;;;;;;6062843;23;20097;-79
2023/01/06 05:41:34;;;;;;;5.18;1.70;;;;;;;;;;6058999;23;20022;-80
2023/01/06 05:44:00;;;;;;;4.32;1.85;;;;;;;;;;6083148;23;20378;-78
2023/01/06 05:46:25;;;;;;;3.78;1.25;;;;;;;;;;6090356;23;20445;-80
2023/01/06 05:48:51;;;;;;;5.43;2.13;;;;;;;;;;6091621;23;20041;-79
2023/01/06 05:51:16;;;;;;;5.70;1.85;;;;;;;;;;6089817;23;20026;-78
2023/01/06 05:53:43;;;;;;;3.92;1.75;;;;;;;;;;6116016;23;20024;-79
2023/01/06 05:56:10;;;;;;;4.45;1.70;;;;;;;;;;6089910;23;20021;-79
2023/01/06 05:58:39;;;;;;;5.25;1.85;;;;;;;;;;6089573;23;20516;-79
2023/01/06 06:01:05;;;;;;;7.15;2.03;;;;;;;;;;6090385;23;20790;-79
2023/01/06 06:03:31;;;;;;;5.47;1.75;;;;;;;;;;6091159;23;20046;-78
2023/01/06 06:06:04;;;;;;;6.35;2.08;;;;;;;;;;6115281;23;20030;-79
2023/01/06 06:08:30;;;;;;;3.42;1.58;;;;;;;;;;6067531;23;20021;-78
2023/01/06 06:10:55;;;;;;;5.88;1.85;;;;;;;;;;6089941;23;20088;-79
2023/01/06 06:13:21;;;;;;;5.78;2.33;;;;;;;;;;6045269;23;20015;-79
2023/01/06 06:15:46;;;;;;;5.60;1.70;;;;;;;;;;6036981;23;20026;-81
2023/01/06 06:18:11;;;;;;;10.27;2.75;;;;;;;;;;6038002;23;20430;-80
2023/01/06 06:20:37;;;;;;;6.07;2.00;;;;;;;;;;6086705;23;20014;-80
2023/01/06 06:23:02;;;;;;;6.05;1.85;;;;;;;;;;6062109;23;20015;-80
2023/01/06 06:25:28;;;;;;;5.90;2.70;;;;;;;;;;6061494;23;20026;-80
2023/01/06 06:27:57;;;;;;;5.97;1.90;;;;;;;;;;6087404;23;20401;-82
2023/01/06 06:30:23;;;;;;;6.28;2.28;;;;;;;;;;6038213;23;20381;-85
2023/01/06 06:32:48;;;;;;;8.52;2.63;;;;;;;;;;6088564;23;20014;-80
2023/01/06 06:35:13;;;;;;;6.68;2.40;;;;;;;;;;6086709;23;20650;-81
2023/01/06 06:37:39;;;;;;;9.43;2.40;;;;;;;;;;6066777;23;20022;-81
2023/01/06 06:40:05;;;;;;;7.13;2.40;;;;;;;;;;6115258;23;20022;-82
2023/01/06 06:42:30;;;;;;;9.48;2.33;;;;;;;;;;6087428;23;20074;-81
2023/01/06 06:44:56;;;;;;;5.75;2.60;;;;;;;;;;6087643;23;20410;-81
2023/01/06 06:47:21;;;;;;;4.97;2.40;;;;;;;;;;6111953;23;20024;-80
2023/01/06 06:49:46;;;;;;;5.05;2.35;;;;;;;;;;6090539;23;20080;-80
2023/01/06 06:52:12;;;;;;;5.85;2.17;;;;;;;;;;6065244;23;20010;-81
2023/01/06 06:54:37;;;;;;;8.20;2.58;;;;;;;;;;6067366;23;20014;-81
2023/01/06 06:57:02;;;;;;;7.05;2.90;;;;;;;;;;6084543;23;20102;-82
2023/01/06 06:59:28;;;;;;;8.65;3.10;;;;;;;;;;6116854;23;20017;-81
2023/01/06 07:01:53;;;;;;;7.32;3.42;;;;;;;;;;6115287;23;20022;-80
2023/01/06 07:04:18;;;;;;;6.85;3.20;;;;;;;;;;6038209;23;20029;-81
2023/01/06 07:06:44;;;;;;;5.63;2.90;;;;;;;;;;6082720;23;20022;-81
2023/01/06 07:09:09;;;;;;;10.40;3.60;;;;;;;;;;6059480;23;20038;-80
2023/01/06 07:11:35;;;;;;;5.63;2.90;;;;;;;;;;6087266;23;20521;-82
2023/01/06 07:14:00;;;;;;;7.72;3.58;;;;;;;;;;6090369;23;20022;-80
2023/01/06 07:16:25;;;;;;;6.57;2.95;;;;;;;;;;6088040;23;20049;-81
2023/01/06 07:18:51;;;;;;;7.72;3.03;;;;;;;;;;6117317;23;20077;-80
2023/01/06 07:21:17;;;;;;;8.80;3.70;;;;;;;;;;6089226;23;20018;-80
2023/01/06 07:23:42;;;;;;;10.23;3.60;;;;;;;;;;6091391;23;20022;-81
2023/01/06 07:26:08;;;;;;;9.52;4.07;;;;;;;;;;6089708;23;20450;-81
2023/01/06 07:28:36;;;;;;;8.70;4.13;;;;;;;;;;6090961;23;20033;-81
2023/01/06 07:31:02;;;;;;;8.60;4.28;;;;;;;;;;6090657;23;20450;-80
2023/01/06 07:33:28;;;;;;;9.20;4.85;;;;;;;;;;6091046;23;20010;-81
2023/01/06 07:35:54;;;;;;;10.20;5.07;;;;;;;;;;6116161;23;20453;-81
2023/01/06 07:38:19;;;;;;;12.85;5.07;;;;;;;;;;6062001;23;20022;-81
2023/01/06 07:40:45;;;;;;;10.60;4.97;;;;;;;;;;6086204;23;20046;-80
2023/01/06 07:43:10;;;;;;;12.45;5.43;;;;;;;;;;6088126;23;20014;-79
2023/01/06 07:45:36;;;;;;;9.93;5.10;;;;;;;;;;6037810;23;20010;-78
2023/01/06 07:48:02;;;;;;;9.95;5.47;;;;;;;;;;6063558;23;20437;-78
2023/01/06 07:50:28;;;;;;;12.40;5.35;;;;;;;;;;6037440;23;20466;-78
2023/01/06 07:52:56;;;;;;;9.23;5.15;;;;;;;;;;6089123;23;20030;-78
2023/01/06 07:55:22;;;;;;;12.73;6.43;;;;;;;;;;6068654;23;20458;-78
2023/01/06 07:57:47;;;;;;;9.88;5.13;;;;;;;;;;6116855;23;20076;-78
2023/01/06 08:00:13;;;;;;;10.75;5.50;;;;;;;;;;6090134;23;20022;-79
2023/01/06 08:02:38;;;;;;;11.15;5.35;;;;;;;;;;6062403;23;20045;-80
2023/01/06 08:05:04;;;;;;;11.90;5.85;;;;;;;;;;6062262;23;20018;-77
2023/01/06 08:07:29;;;;;;;11.00;5.95;;;;;;;;;;6037646;23;20063;-80
2023/01/06 08:09:55;;;;;;;9.90;5.72;;;;;;;;;;6062197;23;20014;-79
2023/01/06 08:12:20;;;;;;;11.35;5.95;;;;;;;;;;6064578;23;20079;-78
2023/01/06 08:14:45;;;;;;;16.27;7.35;;;;;;;;;;6091442;23;20014;-77
2023/01/06 08:17:11;;;;;;;11.40;5.93;;;;;;;;;;6089742;23;20017;-77
2023/01/06 08:19:36;;;;;;;14.32;6.03;;;;;;;;;;6091864;23;20089;-81
2023/01/06 08:22:02;;;;;;;12.73;6.68;;;;;;;;;;6115367;23;20009;-78
2023/01/06 08:27:02;;;;;;;17.85;6.80;;;;;;;;;;6037432;23;20061;-82
2023/01/06 08:29:28;;;;;;;13.25;6.55;;;;;;;;;;6061474;23;20026;-81
2023/01/06 08:31:53;;;;;;;13.77;6.18;;;;;;;;;;6054800;23;20358;-83
2023/01/06 08:34:19;;;;;;;14.25;5.55;;;;;;;;;;6059588;23;20409;-82
2023/01/06 08:36:44;;;;;;;14.45;6.30;;;;;;;;;;6049402;23;20113;-83
2023/01/06 08:39:11;;;;;;;14.93;6.95;;;;;;;;;;6060028;23;20021;-82
2023/01/06 08:41:37;;;;;;;15.00;6.50;;;;;;;;;;6058970;23;20046;-83
2023/01/06 08:44:03;;;;;;;16.15;6.35;;;;;;;;;;6058789;23;20050;-84
2023/01/06 08:46:28;;;;;;;12.45;6.10;;;;;;;;;;6058925;23;20045;-83
2023/01/06 08:48:54;;;;;;;12.15;6.38;;;;;;;;;;6059040;23;20014;-82
2023/01/06 08:51:22;;;;;;;12.18;5.85;;;;;;;;;;6057787;23;20018;-83
2023/01/06 08:53:48;;;;;;;15.35;6.00;;;;;;;;;;6064250;23;20010;-84
2023/01/06 08:56:22;;;;;;;13.23;6.93;;;;;;;;;;6063534;23;20379;-82
2023/01/06 08:58:56;;;;;;;13.13;6.70;;;;;;;;;;6088504;23;20018;-84
2023/01/06 09:01:24;;;;;;;14.45;6.28;;;;;;;;;;6063916;23;20018;-82
2023/01/06 09:03:50;;;;;;;13.93;6.85;;;;;;;;;;6064908;23;20465;-85
2023/01/06 09:06:17;;;;;;;12.77;6.32;;;;;;;;;;6034996;23;20023;-83
2023/01/06 09:08:42;;;;;;;13.38;6.53;;;;;;;;;;6035815;23;20451;-83
2023/01/06 09:11:09;;;;;;;13.18;6.88;;;;;;;;;;6071287;23;20019;-83
2023/01/06 09:13:35;;;;;;;14.87;6.97;;;;;;;;;;6037202;23;20058;-84
2023/01/06 09:16:04;;;;;;;15.68;6.57;;;;;;;;;;6044723;23;20019;-83
2023/01/06 09:18:30;;;;;;;16.70;7.18;;;;;;;;;;6063709;23;20017;-83
2023/01/06 09:20:55;;;;;;;15.85;6.78;;;;;;;;;;6063368;23;20018;-84
2023/01/06 09:23:22;;;;;;;13.95;6.45;;;;;;;;;;6064241;23;20096;-83
2023/01/06 09:25:47;;;;;;;15.82;7.18;;;;;;;;;;6065407;23;20010;-84
2023/01/06 09:28:13;;;;;;;13.60;6.78;;;;;;;;;;6067962;23;20017;-84
2023/01/06 09:30:39;;;;;;;15.88;7.15;;;;;;;;;;6067744;23;20024;-84
2023/01/06 09:33:05;;;;;;;14.73;7.05;;;;;;;;;;6044497;23;20034;-84
2023/01/06 09:35:31;;;;;;;15.43;7.10;;;;;;;;;;6067741;23;20050;-83
2023/01/06 09:37:56;;;;;;;15.45;6.65;;;;;;;;;;6067332;23;20040;-84
2023/01/06 09:40:26;;;;;;;15.07;7.20;;;;;;;;;;6067703;23;20045;-83
2023/01/06 09:43:12;;;;;;;12.85;6.15;;;;;;;;;;6067929;23;20006;-84
2023/01/06 09:45:45;;;;;;;14.95;6.93;;;;;;;;;;6091000;23;20021;-84
2023/01/06 09:48:16;;;;;;;13.73;7.03;;;;;;;;;;6067130;23;20016;-83
2023/01/06 09:50:47;;;;;;;12.98;6.80;;;;;;;;;;6092028;23;20085;-84
2023/01/06 09:53:21;;;;;;;14.43;6.75;;;;;;;;;;6091526;23;20021;-84
2023/01/06 09:55:51;;;;;;;13.57;6.25;;;;;;;;;;6091556;23;20522;-83
2023/01/06 09:58:20;;;;;;;15.35;6.47;;;;;;;;;;6090962;23;20105;-84
2023/01/06 10:00:48;;;;;;;16.48;6.78;;;;;;;;;;6068078;23;20469;-82
2023/01/06 10:03:16;;;;;;;13.45;6.57;;;;;;;;;;6092115;23;20010;-83
2023/01/06 10:06:16;;;;;;;15.38;6.55;;;;;;;;;;6090644;23;20021;-83
2023/01/06 10:09:03;;;;;;;15.77;6.35;;;;;;;;;;6065837;23;20056;-83
2023/01/06 10:11:49;;;;;;;12.43;6.05;;;;;;;;;;6091022;23;20028;-82
2023/01/06 10:14:24;;;;;;;13.60;6.23;;;;;;;;;;6090841;23;20460;-83
2023/01/06 10:16:50;;;;;;;13.13;5.95;;;;;;;;;;6091363;23;20045;-83
2023/01/06 10:19:48;;;;;;;13.48;6.05;;;;;;;;;;6092178;23;20026;-82
2023/01/06 10:22:41;;;;;;;13.10;5.60;;;;;;;;;;5948306;23;20591;-82
2023/01/06 10:25:33;;;;;;;14.75;6.22;;;;;;;;;;5972859;23;20020;-83
2023/01/06 10:28:04;;;;;;;15.70;5.82;;;;;;;;;;5947750;23;20028;-83
2023/01/06 10:30:35;;;;;;;12.13;5.53;;;;;;;;;;5925599;23;20452;-82
2023/01/06 10:33:00;;;;;;;12.13;6.15;;;;;;;;;;5924409;23;20456;-83
2023/01/06 10:35:26;;;;;;;15.63;6.53;;;;;;;;;;5925218;23;20028;-83
2023/01/06 10:37:53;;;;;;;13.98;6.90;;;;;;;;;;5949002;23;20035;-84
2023/01/06 10:40:26;;;;;;;10.35;6.10;;;;;;;;;;5948065;23;20031;-83
2023/01/06 10:42:54;;;;;;;15.27;6.70;;;;;;;;;;5948657;23;20020;-84
2023/01/06 10:45:40;;;;;;;12.52;6.80;;;;;;;;;;5971700;23;20028;-82
2023/01/06 10:48:10;;;;;;;11.50;6.05;;;;;;;;;;5947865;23;20024;-83
2023/01/06 10:50:36;;;;;;;13.13;6.20;;;;;;;;;;5949699;23;20041;-83
2023/01/06 10:53:02;;;;;;;11.25;5.68;;;;;;;;;;5925437;23;20016;-83
2023/01/06 10:55:30;;;;;;;12.82;6.20;;;;;;;;;;5924990;23;20020;-83
2023/01/06 10:58:00;;;;;;;12.07;6.30;;;;;;;;;;5947988;23;20016;-83
2023/01/06 11:00:25;;;;;;;12.98;5.85;;;;;;;;;;6060290;23;20017;-82
2023/01/06 11:02:54;;;;;;;10.82;5.95;;;;;;;;;;6068175;23;20465;-84
2023/01/06 11:05:24;;;;;;;12.23;5.55;;;;;;;;;;6066760;23;20350;-83
2023/01/06 11:08:00;;;;;;;11.15;5.50;;;;;;;;;;6066355;23;20025;-81
2023/01/06 11:10:29;;;;;;;9.85;5.80;;;;;;;;;;6090316;23;20006;-83
2023/01/06 11:12:57;;;;;;;10.55;5.47;;;;;;;;;;6090738;23;20013;-82
2023/01/06 11:15:24;;;;;;;11.20;5.97;;;;;;;;;;6066984;23;20362;-82
2023/01/06 11:17:50;;;;;;;11.70;5.93;;;;;;;;;;6092529;23;20010;-82
2023/01/06 11:20:40;;;;;;;11.50;5.38;;;;;;;;;;6069254;23;20122;-83
2023/01/06 11:23:21;;;;;;;13.15;5.90;;;;;;;;;;5952364;23;20012;-83
2023/01/06 11:26:17;;;;;;;10.55;5.60;;;;;;;;;;5949136;23;20020;-84
2023/01/06 11:28:47;;;;;;;11.63;5.63;;;;;;;;;;5913298;23;20106;-84
2023/01/06 11:31:13;;;;;;;12.32;5.43;;;;;;;;;;5949522;23;20558;-83
2023/01/06 11:33:56;;;;;;;9.90;5.50;;;;;;;;;;5972754;23;20024;-83
2023/01/06 11:36:24;;;;;;;11.02;4.80;;;;;;;;;;5949631;24;20479;-84
2023/01/06 11:39:33;;;;;;;11.10;5.28;;;;;;;;;;5950284;24;20072;-83
2023/01/06 11:42:04;;;;;;;11.43;5.47;;;;;;;;;;5937506;23;20076;-84
2023/01/06 11:44:32;;;;;;;11.23;5.53;;;;;;;;;;5972628;23;20568;-81
2023/01/06 11:46:59;;;;;;;;;;;;;;;;;;5926666;23;20099;-82
2023/01/06 11:49:33;;;;;;;11.45;5.25;;;;;;;;;;5950708;24;20242;-82
2023/01/06 11:52:21;;;;;;;11.43;5.78;;;;;;;;;;5947752;23;20016;-81
2023/01/06 11:54:58;;;;;;;12.25;5.40;;;;;;;;;;5971845;23;20024;-83
2023/01/06 11:57:30;;;;;;;12.07;5.53;;;;;;;;;;5948383;24;20026;-83
2023/01/06 12:00:02;;;;;;;11.30;5.75;;;;;;;;;;5987956;23;20010;-85
2023/01/06 12:02:50;;;;;;;12.60;5.68;;;;;;;;;;6092832;23;20587;-82
2023/01/06 12:05:28;;;;;;;12.52;5.68;;;;;;;;;;6098023;23;20097;-83
2023/01/06 12:07:56;;;;;;;11.32;5.40;;;;;;;;;;6079339;23;20018;-82
2023/01/06 12:10:25;;;;;;;13.55;6.57;;;;;;;;;;6067964;23;20021;-83
2023/01/06 12:12:51;;;;;;;11.90;5.68;;;;;;;;;;6092468;23;20326;-83
2023/01/06 12:15:17;;;;;;;15.65;6.07;;;;;;;;;;6066834;23;20037;-83
2023/01/06 12:17:49;;;;;;;12.77;5.90;;;;;;;;;;6068110;23;20014;-84
2023/01/06 12:20:17;;;;;;;11.00;5.15;;;;;;;;;;6091439;23;20049;-83
2023/01/06 12:22:48;;;;;;;9.25;5.25;;;;;;;;;;6118308;23;20049;-83
2023/01/06 12:25:18;;;;;;;9.95;4.97;;;;;;;;;;6040584;23;20089;-83
2023/01/06 12:27:58;;;;;;;10.68;4.78;;;;;;;;;;6067565;23;20026;-83
2023/01/06 12:30:29;;;;;;;11.45;4.80;;;;;;;;;;6091318;23;20478;-84
2023/01/06 12:33:00;;;;;;;9.85;4.85;;;;;;;;;;6091917;23;20028;-83
2023/01/06 12:35:28;;;;;;;10.50;4.93;;;;;;;;;;6066916;23;20669;-83
2023/01/06 12:38:02;;;;;;;9.25;4.72;;;;;;;;;;6069448;23;20025;-83
2023/01/06 12:40:42;;;;;;;9.57;4.78;;;;;;;;;;6068568;23;20021;-83
2023/01/06 12:43:19;;;;;;;7.63;4.18;;;;;;;;;;6091970;23;20056;-84
2023/01/06 12:46:08;;;;;;;9.73;4.13;;;;;;;;;;6067557;23;20480;-83
2023/01/06 12:48:48;;;;;;;8.48;4.13;;;;;;;;;;6067493;23;20446;-84
2023/01/06 12:51:17;;;;;;;8.75;3.70;;;;;;;;;;6067224;23;20042;-84
2023/01/06 12:53:47;;;;;;;8.63;3.70;;;;;;;;;;6092102;23;20073;-84
2023/01/06 12:56:18;;;;;;;5.70;3.03;;;;;;;;;;6068724;23;20077;-83
2023/01/06 12:58:43;;;;;;;7.00;2.78;;;;;;;;;;6092770;23;20302;-82
2023/01/06 13:01:28;;;;;;;5.57;2.75;;;;;;;;;;6091210;23;20018;-82
2023/01/06 13:04:20;;;;;;;5.50;2.75;;;;;;;;;;6068422;23;20608;-83
2023/01/06 13:07:13;;;;;;;5.82;2.30;;;;;;;;;;6117034;23;20009;-83
2023/01/06 13:09:46;;;;;;;5.13;2.22;;;;;;;;;;6090751;23;20025;-84
2023/01/06 13:12:30;;;;;;;3.42;1.80;;;;;;;;;;6067726;23;20458;-84
2023/01/06 13:15:05;;;;;;;4.30;2.00;;;;;;;;;;6090329;23;20022;-84
2023/01/06 13:18:09;;;;;;;4.20;1.77;;;;;;;;;;6092180;23;20068;-85
2023/01/06 13:20:37;;;;;;;3.50;1.58;;;;;;;;;;6066635;23;20013;-83
2023/01/06 13:23:28;;;;;;;4.57;1.70;;;;;;;;;;6092294;23;20010;-83
2023/01/06 13:26:24;;;;;;;6.55;2.00;;;;;;;;;;6067184;23;20501;-83
2023/01/06 13:29:21;;;;;;;3.45;1.58;;;;;;;;;;6118250;23;20113;-83
2023/01/06 13:31:58;;;;;;;2.92;1.30;;;;;;;;;;5947758;23;20027;-83
2023/01/06 13:34:39;;;;;;;2.42;1.17;;;;;;;;;;5949178;24;20115;-83
2023/01/06 13:37:19;;;;;;;2.83;1.30;;;;;;;;;;5947625;23;20024;-83
2023/01/06 13:39:46;;;;;;;2.45;0.95;;;;;;;;;;5971395;23;20016;-83
2023/01/06 13:42:17;;;;;;;3.80;1.38;;;;;;;;;;5934891;23;20019;-85
2023/01/06 13:44:44;;;;;;;3.28;1.45;;;;;;;;;;5948053;23;20099;-85
2023/01/06 13:47:17;;;;;;;2.73;1.20;;;;;;;;;;5947709;23;20376;-85
2023/01/06 13:49:43;;;;;;;3.10;1.13;;;;;;;;;;5947668;23;20043;-85
2023/01/06 13:52:17;;;;;;;3.70;1.25;;;;;;;;;;5949157;23;20016;-85
2023/01/06 13:54:42;;;;;;;2.22;0.90;;;;;;;;;;5947846;23;20528;-86
2023/01/06 13:57:26;;;;;;;2.78;0.90;;;;;;;;;;5970857;23;20062;-86
2023/01/06 14:00:03;;;;;;;3.60;1.40;;;;;;;;;;5948250;24;20401;-85
2023/01/06 14:02:35;;;;;;;2.33;0.95;;;;;;;;;;5948075;23;20023;-85
2023/01/06 14:05:05;;;;;;;4.82;1.20;;;;;;;;;;5957551;23;20016;-85
2023/01/06 14:07:41;;;;;;;2.40;0.80;;;;;;;;;;5948355;23;20012;-83
2023/01/06 14:10:29;;;;;;;3.17;0.70;;;;;;;;;;6049057;23;20349;-87
2023/01/06 14:12:54;;;;;;;2.40;0.90;;;;;;;;;;6074162;23;20021;-86
2023/01/06 14:15:26;;;;;;;3.28;0.85;;;;;;;;;;6035207;23;20026;-86
2023/01/06 14:17:51;;;;;;;2.25;0.90;;;;;;;;;;6046791;23;20014;-86
2023/01/06 14:20:37;;;;;;;2.17;0.90;;;;;;;;;;6067291;23;20105;-86
2023/01/06 14:23:06;;;;;;;1.58;0.75;;;;;;;;;;6067888;23;20013;-86
2023/01/06 14:25:37;;;;;;;2.00;0.77;;;;;;;;;;6090688;23;20014;-86
2023/01/06 14:28:03;;;;;;;2.80;0.93;;;;;;;;;;6090605;23;20022;-87
2023/01/06 14:30:32;;;;;;;2.05;0.70;;;;;;;;;;6066145;23;20085;-86
2023/01/06 14:33:08;;;;;;;1.13;0.60;;;;;;;;;;6091840;23;20045;-85
2023/01/06 14:35:40;;;;;;;2.90;0.88;;;;;;;;;;6077190;23;20014;-86
2023/01/06 14:38:18;;;;;;;1.50;0.63;;;;;;;;;;6067650;23;20084;-87
2023/01/06 14:40:57;;;;;;;1.70;0.80;;;;;;;;;;6088766;23;20017;-87
2023/01/06 14:43:30;;;;;;;3.30;0.73;;;;;;;;;;6031015;23;20010;-86
2023/01/06 14:45:57;;;;;;;1.80;0.90;;;;;;;;;;6065319;23;20014;-86
2023/01/06 14:48:23;;;;;;;2.55;0.95;;;;;;;;;;6091195;23;20014;-87
2023/01/06 14:50:55;;;;;;;2.17;1.00;;;;;;;;;;6065720;23;20528;-86
2023/01/06 14:53:40;;;;;;;2.20;0.70;;;;;;;;;;6067390;23;20454;-86
2023/01/06 14:56:06;;;;;;;2.00;0.98;;;;;;;;;;6032897;23;20339;-86
2023/01/06 14:58:35;;;;;;;2.42;0.77;;;;;;;;;;6064119;23;20016;-86
2023/01/06 15:01:02;;;;;;;2.47;0.90;;;;;;;;;;6068199;23;20018;-86
2023/01/06 15:03:28;;;;;;;2.17;0.93;;;;;;;;;;6092365;23;20014;-85
2023/01/06 15:06:20;;;;;;;3.50;1.00;;;;;;;;;;6068531;23;20022;-87